Time;durP1;ratioP1;P1;durP2;ratioP2;P2;SDS_P1;SDS_P2;PMS_P1;PMS_P2;Temp;Humidity;BMP_temperature;BMP_pressure;BME280_temperature;BME280_humidity;BME280_pressure;Samples;Min_cycle;Max_cycle;Signal;HPM_P1;HPM_P2
2021/10/26 00:00:08;;;;;;;34.08;17.23;;;;;;;5.68;75.35;101196.16;1732428;81;25852;-80
2021/10/26 00:02:38;;;;;;;33.88;19.12;;;;;;;5.69;75.34;101193.02;1733710;81;25781;-81
2021/10/26 00:05:07;;;;;;;34.18;18.60;;;;;;;5.67;75.26;101196.27;1751100;81;25919;-80
2021/10/26 00:07:34;;;;;;;37.38;19.15;;;;;;;5.69;75.29;101190.36;1698113;81;27588;-80
2021/10/26 00:10:01;;;;;;;37.17;18.23;;;;;;;5.67;75.18;101189.63;1696827;82;26617;-80
2021/10/26 00:12:28;;;;;;;33.73;17.07;;;;;;;5.67;75.11;101196.27;1695111;81;26285;-80
2021/10/26 00:14:55;;;;;;;33.50;17.27;;;;;;;5.64;75.12;101186.78;1752608;81;25808;-80
2021/10/26 00:17:23;;;;;;;33.45;16.45;;;;;;;5.63;75.01;101193.06;1702201;81;25973;-81
2021/10/26 00:19:52;;;;;;;35.45;18.32;;;;;;;5.62;75.04;101190.55;1702682;81;27675;-81
2021/10/26 00:22:19;;;;;;;28.23;14.63;;;;;;;5.61;74.97;101192.37;1703531;81;25855;-80
2021/10/26 00:24:46;;;;;;;34.00;17.23;;;;;;;5.60;74.95;101189.86;1748785;81;25362;-80
2021/10/26 00:27:14;;;;;;;38.23;16.05;;;;;;;5.58;74.94;101184.66;1678172;81;25927;-80
2021/10/26 00:29:42;;;;;;;33.33;16.62;;;;;;;5.58;74.91;101187.32;1703019;81;25975;-81
2021/10/26 00:32:09;;;;;;;30.30;16.67;;;;;;;5.59;74.91;101188.17;1694322;81;27773;-80
2021/10/26 00:34:36;;;;;;;28.32;15.80;;;;;;;5.59;74.83;101192.16;1744814;81;26230;-80
2021/10/26 00:37:04;;;;;;;33.75;16.80;;;;;;;5.57;74.78;101187.47;1726263;81;25780;-80
2021/10/26 00:39:31;;;;;;;31.68;15.30;;;;;;;5.55;74.79;101195.59;1713265;83;25852;-80
2021/10/26 00:42:00;;;;;;;28.27;16.45;;;;;;;5.55;74.77;101192.09;1676362;83;25938;-82
2021/10/26 00:44:29;;;;;;;33.20;16.32;;;;;;;5.54;74.72;101191.75;1719605;81;28795;-81
2021/10/26 00:46:56;;;;;;;30.12;15.93;;;;;;;5.52;74.69;101189.73;1727682;81;26649;-80
2021/10/26 00:49:24;;;;;;;32.35;17.60;;;;;;;5.51;74.68;101199.51;1701575;81;25858;-80
2021/10/26 00:51:51;;;;;;;31.40;16.27;;;;;;;5.51;74.66;101190.21;1693842;81;25931;-81
2021/10/26 00:54:19;;;;;;;32.95;17.30;;;;;;;5.51;74.59;101194.20;1728181;81;25886;-80
2021/10/26 00:56:47;;;;;;;32.75;15.90;;;;;;;5.51;74.61;101192.87;1709669;81;28298;-81
2021/10/26 00:59:15;;;;;;;31.02;17.20;;;;;;;5.48;74.54;101191.33;1744486;81;25840;-80
2021/10/26 01:01:45;;;;;;;29.40;14.87;;;;;;;5.47;74.51;101194.95;1701115;82;25948;-80
2021/10/26 01:04:12;;;;;;;29.75;15.53;;;;;;;5.44;74.49;101189.92;1743595;81;26519;-80
2021/10/26 01:06:40;;;;;;;31.27;15.68;;;;;;;5.44;74.46;101186.42;1733531;81;25882;-80
2021/10/26 01:09:08;;;;;;;32.70;15.58;;;;;;;5.42;74.38;101192.38;1703202;81;28119;-80
2021/10/26 01:11:37;;;;;;;29.75;13.88;;;;;;;5.41;74.39;101184.03;1673702;83;25794;-80
2021/10/26 01:14:06;;;;;;;28.57;15.88;;;;;;;5.39;74.37;101183.34;1707415;83;25820;-80
2021/10/26 01:16:33;;;;;;;27.67;14.55;;;;;;;5.37;74.41;101190.61;1733453;80;26565;-81
2021/10/26 01:19:00;;;;;;;34.00;16.25;;;;;;;5.36;74.46;101183.15;1731749;81;25834;-80
2021/10/26 01:21:28;;;;;;;31.90;15.63;;;;;;;5.38;74.48;101183.85;1709065;81;27306;-80
2021/10/26 01:23:55;;;;;;;26.35;15.88;;;;;;;5.38;74.51;101183.85;1752208;81;25760;-80
2021/10/26 01:26:23;;;;;;;31.62;14.13;;;;;;;5.39;74.54;101184.19;1697416;83;26581;-80
2021/10/26 01:28:50;;;;;;;29.60;15.30;;;;;;;5.42;74.49;101180.41;1650626;84;25887;-80
2021/10/26 01:31:17;;;;;;;25.02;14.15;;;;;;;5.40;74.42;101180.56;1693121;81;25944;-81
2021/10/26 01:33:59;;;;;;;26.85;14.90;;;;;;;5.41;74.42;101174.25;1723568;81;28334;-80
2021/10/26 01:36:31;;;;;;;32.45;15.00;;;;;;;5.42;74.42;101176.43;1732269;81;25852;-80
2021/10/26 01:38:58;;;;;;;33.98;15.63;;;;;;;5.41;74.36;101174.73;1728771;81;25818;-80
2021/10/26 01:41:25;;;;;;;30.20;14.93;;;;;;;5.42;74.37;101173.29;1696818;83;25885;-81
2021/10/26 01:43:53;;;;;;;29.02;14.38;;;;;;;5.42;74.34;101171.12;1697476;83;25779;-80
2021/10/26 01:46:21;;;;;;;26.05;14.33;;;;;;;5.43;74.26;101175.47;1697019;83;28293;-80
2021/10/26 01:48:49;;;;;;;26.10;14.60;;;;;;;5.43;74.23;101179.45;1641534;84;25901;-80
2021/10/26 01:51:17;;;;;;;27.90;13.90;;;;;;;5.41;74.21;101173.41;1670922;84;26389;-80
2021/10/26 01:53:44;;;;;;;27.25;14.18;;;;;;;5.40;74.14;101174.41;1702097;82;25883;-80
2021/10/26 01:56:14;;;;;;;26.60;14.50;;;;;;;5.38;74.19;101174.55;1725472;81;26255;-80
2021/10/26 01:58:42;;;;;;;26.15;13.68;;;;;;;5.36;74.20;101172.53;1723744;81;27464;-80
2021/10/26 02:01:11;;;;;;;25.55;14.98;;;;;;;5.34;74.23;101176.30;1730679;81;25378;-80
2021/10/26 02:03:38;;;;;;;27.60;13.70;;;;;;;5.34;74.18;101168.33;1756821;80;25807;-80
2021/10/26 02:06:05;;;;;;;29.30;14.00;;;;;;;5.33;74.22;101167.95;1751857;80;25834;-80
2021/10/26 02:08:33;;;;;;;25.68;14.38;;;;;;;5.31;74.19;101181.88;1727822;80;25803;-81
2021/10/26 02:11:00;;;;;;;24.23;13.38;;;;;;;5.30;74.25;101178.88;1688926;81;27293;-80
2021/10/26 02:13:27;;;;;;;27.75;14.13;;;;;;;5.29;74.15;101175.38;1742995;81;25754;-80
2021/10/26 02:15:55;;;;;;;27.07;14.30;;;;;;;5.28;74.20;101179.51;1696990;83;25856;-80
2021/10/26 02:18:22;;;;;;;25.27;13.40;;;;;;;5.27;74.17;101177.34;1691041;81;25896;-80
2021/10/26 02:20:52;;;;;;;26.82;13.53;;;;;;;5.25;74.12;101173.14;1696827;81;26622;-80
2021/10/26 02:23:20;;;;;;;27.73;13.28;;;;;;;5.24;74.16;101174.94;1749136;81;28306;-80
2021/10/26 02:25:47;;;;;;;26.33;13.28;;;;;;;5.23;74.14;101169.30;1750335;81;25770;-80
2021/10/26 02:28:14;;;;;;;25.40;13.38;;;;;;;5.20;74.11;101174.88;1703583;81;25848;-81
2021/10/26 02:30:41;;;;;;;25.80;13.88;;;;;;;5.19;74.13;101173.69;1696942;81;26038;-80
2021/10/26 02:33:10;;;;;;;27.52;13.35;;;;;;;5.14;74.17;101178.09;1749701;81;26357;-80
2021/10/26 02:35:38;;;;;;;28.98;13.45;;;;;;;5.15;74.24;101176.28;1728323;81;27969;-80
2021/10/26 02:38:06;;;;;;;24.63;13.25;;;;;;;5.14;74.22;101179.41;1701615;81;25528;-80
2021/10/26 02:40:33;;;;;;;24.43;13.75;;;;;;;5.13;74.26;101180.38;1698203;81;26331;-80
2021/10/26 02:43:00;;;;;;;25.88;12.95;;;;;;;5.13;74.30;101175.58;1727259;81;25929;-80
2021/10/26 02:45:29;;;;;;;21.10;13.03;;;;;;;5.13;74.31;101181.70;1728059;81;25963;-80
2021/10/26 02:47:58;;;;;;;30.55;13.72;;;;;;;5.14;74.31;101178.56;1702266;81;27477;-80
2021/10/26 02:50:28;;;;;;;28.73;13.08;;;;;;;5.12;74.32;101170.75;1702932;81;25847;-80
2021/10/26 02:52:55;;;;;;;26.48;12.73;;;;;;;5.12;74.30;101172.56;1743194;81;25867;-81
2021/10/26 02:55:22;;;;;;;23.20;12.93;;;;;;;5.10;74.33;101170.05;1702282;81;26445;-80
2021/10/26 02:57:49;;;;;;;29.95;13.58;;;;;;;5.11;74.31;101174.88;1702753;81;25902;-79
2021/10/26 03:00:17;;;;;;;23.02;12.43;;;;;;;5.11;74.35;101171.71;1730235;81;27467;-81
2021/10/26 03:02:44;;;;;;;24.20;13.00;;;;;;;5.08;74.28;101173.33;1748780;81;25966;-80
2021/10/26 03:05:11;;;;;;;21.77;12.00;;;;;;;5.07;74.30;101174.30;1721545;82;26002;-80
2021/10/26 03:07:44;;;;;;;22.75;13.28;;;;;;;5.05;74.31;101168.28;1727882;81;26470;-81
2021/10/26 03:10:13;;;;;;;22.02;12.98;;;;;;;5.04;74.35;101169.28;1684515;82;25893;-80
2021/10/26 03:12:41;;;;;;;22.80;12.65;;;;;;;5.07;74.40;101168.17;1749441;81;28472;-80
2021/10/26 03:15:11;;;;;;;23.32;12.68;;;;;;;5.03;74.38;101172.89;1700354;82;25928;-80
2021/10/26 03:17:40;;;;;;;26.68;14.75;;;;;;;5.03;74.40;101171.56;1708565;82;25832;-80
2021/10/26 03:20:10;;;;;;;25.70;13.20;;;;;;;5.01;74.43;101166.88;1681497;83;25859;-80
2021/10/26 03:22:38;;;;;;;22.48;12.33;;;;;;;4.99;74.43;101179.45;1715355;83;26489;-81
2021/10/26 03:25:07;;;;;;;26.20;13.50;;;;;;;4.99;74.51;101171.97;1695248;83;27477;-80
2021/10/26 03:27:35;;;;;;;23.50;11.73;;;;;;;4.99;74.47;101170.64;1708354;82;25854;-80
2021/10/26 03:30:09;;;;;;;21.33;11.95;;;;;;;4.98;74.55;101169.83;1699077;84;26588;-79
2021/10/26 03:32:37;;;;;;;27.07;12.80;;;;;;;4.97;74.54;101172.13;1705961;82;25867;-80
2021/10/26 03:35:23;;;;;;;27.67;13.25;;;;;;;4.98;74.57;101171.64;1730195;81;25848;-80
2021/10/26 03:37:51;;;;;;;25.77;13.78;;;;;;;4.95;74.61;101181.19;1684020;82;28195;-80
2021/10/26 03:40:18;;;;;;;21.10;11.73;;;;;;;4.94;74.66;101171.05;1700925;81;25884;-80
2021/10/26 03:42:46;;;;;;;23.75;12.07;;;;;;;4.92;74.73;101174.33;1731412;81;25901;-79
2021/10/26 03:45:13;;;;;;;23.95;13.15;;;;;;;4.95;74.70;101180.71;1710925;81;25960;-80
2021/10/26 03:47:42;;;;;;;22.13;12.23;;;;;;;4.95;74.69;101171.42;1692947;81;25798;-80
2021/10/26 03:50:11;;;;;;;24.50;12.75;;;;;;;4.95;74.74;101168.77;1648868;84;27502;-80
2021/10/26 03:52:38;;;;;;;27.15;13.25;;;;;;;4.95;74.75;101159.47;1722332;81;26589;-81
2021/10/26 03:55:07;;;;;;;25.97;12.37;;;;;;;4.97;74.71;101163.31;1702943;82;25853;-81
2021/10/26 03:57:35;;;;;;;21.93;11.35;;;;;;;4.96;74.74;101158.48;1668532;84;26370;-81
2021/10/26 04:00:04;;;;;;;19.48;11.97;;;;;;;4.98;74.72;101167.66;1693355;81;25811;-81
2021/10/26 04:02:39;;;;;;;20.95;11.53;;;;;;;4.95;74.68;101162.61;1730149;82;27571;-80
2021/10/26 04:05:12;;;;;;;16.90;10.75;;;;;;;4.92;74.69;101161.06;1749306;80;25780;-80
2021/10/26 04:07:33;;;;;;;20.43;11.90;;;;;;;4.91;74.76;101147.94;1690253;81;25900;-80
2021/10/26 04:10:07;;;;;;;23.02;12.07;;;;;;;4.90;74.79;101156.89;1699081;81;26610;-81
2021/10/26 04:12:34;;;;;;;20.15;12.35;;;;;;;4.89;74.82;101149.89;1750912;80;26846;-80
2021/10/26 04:15:02;;;;;;;23.98;11.48;;;;;;;4.86;74.82;101144.36;1720298;81;28302;-80
2021/10/26 04:17:29;;;;;;;26.02;12.58;;;;;;;4.83;74.88;101147.30;1729086;81;25864;-80
2021/10/26 04:19:59;;;;;;;23.18;12.53;;;;;;;4.80;74.94;101147.56;1721301;81;25899;-82
2021/10/26 04:22:28;;;;;;;24.15;12.28;;;;;;;4.80;74.97;101150.70;1749406;80;26635;-80
2021/10/26 04:24:55;;;;;;;22.07;12.03;;;;;;;4.76;75.02;101144.84;1736921;81;25924;-80
2021/10/26 04:27:25;;;;;;;22.27;11.30;;;;;;;4.73;75.17;101149.08;1696259;81;27695;-80
2021/10/26 04:29:52;;;;;;;20.25;12.43;;;;;;;4.73;75.23;101153.57;1641495;83;25870;-79
2021/10/26 04:32:20;;;;;;;20.90;13.00;;;;;;;4.72;75.38;101140.78;1704045;82;25889;-80
2021/10/26 04:34:49;;;;;;;26.35;11.45;;;;;;;4.69;75.43;101141.04;1726555;81;25868;-80
2021/10/26 04:37:16;;;;;;;21.33;11.80;;;;;;;4.69;75.51;101141.89;1696833;81;25878;-80
2021/10/26 04:39:44;;;;;;;22.52;12.65;;;;;;;4.69;75.60;101135.25;1695182;81;27302;-80
2021/10/26 04:42:12;;;;;;;22.60;12.03;;;;;;;4.68;75.58;101140.19;1719004;81;25880;-80
2021/10/26 04:44:40;;;;;;;25.32;13.38;;;;;;;4.69;75.66;101140.56;1710194;81;25809;-80
2021/10/26 04:47:09;;;;;;;24.07;13.13;;;;;;;4.70;75.70;101140.89;1701784;81;25905;-80
2021/10/26 04:49:36;;;;;;;19.27;11.73;;;;;;;4.71;75.71;101137.76;1694048;81;26142;-80
2021/10/26 04:52:03;;;;;;;19.70;11.30;;;;;;;4.71;75.73;101127.14;1742528;81;27455;-80
2021/10/26 04:54:31;;;;;;;21.02;12.23;;;;;;;4.73;75.77;101133.67;1727846;81;25821;-81
2021/10/26 04:57:05;;;;;;;22.90;11.40;;;;;;;4.74;75.79;101132.67;1716885;81;25856;-80
2021/10/26 04:59:35;;;;;;;21.68;12.07;;;;;;;4.71;75.74;101125.81;1727551;81;25734;-80
2021/10/26 05:02:03;;;;;;;22.93;12.50;;;;;;;4.69;75.81;101122.47;1735460;81;25729;-81
2021/10/26 05:04:32;;;;;;;21.35;12.65;;;;;;;4.69;75.84;101122.47;1724403;80;27723;-81
2021/10/26 05:06:59;;;;;;;25.57;12.75;;;;;;;4.67;75.87;101123.09;1730882;80;26032;-80
2021/10/26 05:09:26;;;;;;;23.62;11.83;;;;;;;4.66;75.96;101132.86;1701969;81;25775;-80
2021/10/26 05:11:53;;;;;;;24.65;12.18;;;;;;;4.66;76.01;101127.55;1742395;81;26620;-80
2021/10/26 05:14:20;;;;;;;28.32;11.73;;;;;;;4.65;76.05;101126.38;1696365;83;26094;-80
2021/10/26 05:16:59;;;;;;;21.93;12.55;;;;;;;4.64;76.18;101130.02;1698513;83;27534;-80
2021/10/26 05:19:46;;;;;;;22.48;12.43;;;;;;;4.65;76.20;101131.20;1659636;84;26046;-80
2021/10/26 05:22:32;;;;;;;21.60;12.50;;;;;;;4.64;76.25;101126.03;1695989;83;25742;-80
2021/10/26 05:25:19;;;;;;;23.92;12.55;;;;;;;4.64;76.37;101132.16;1675000;84;26435;-81
2021/10/26 05:27:48;;;;;;;24.25;12.53;;;;;;;4.65;76.43;101135.66;1668315;83;25915;-80
2021/10/26 05:30:15;;;;;;;22.30;13.38;;;;;;;4.65;76.52;101139.64;1697968;83;27552;-80
2021/10/26 05:32:43;;;;;;;25.72;12.23;;;;;;;4.64;76.56;101141.95;1683527;83;25584;-80
2021/10/26 05:35:10;;;;;;;19.35;12.25;;;;;;;4.63;76.68;101143.77;1756661;81;25737;-81
2021/10/26 05:37:38;;;;;;;21.93;12.65;;;;;;;4.62;76.67;101138.56;1694755;81;26249;-80
2021/10/26 05:40:07;;;;;;;23.20;12.80;;;;;;;4.66;76.71;101140.00;1729338;81;25930;-79
2021/10/26 05:42:34;;;;;;;22.35;13.18;;;;;;;4.66;76.68;101146.13;1733491;81;27459;-81
2021/10/26 05:45:03;;;;;;;23.77;12.78;;;;;;;4.68;76.83;101142.03;1754686;81;26086;-79
2021/10/26 05:47:30;;;;;;;21.52;12.98;;;;;;;4.69;76.89;101144.54;1696779;81;26541;-80
2021/10/26 05:49:57;;;;;;;22.87;12.53;;;;;;;4.69;76.89;101145.02;1679955;82;25878;-80
2021/10/26 05:52:24;;;;;;;26.55;14.75;;;;;;;4.69;76.99;101145.02;1696392;83;25973;-80
2021/10/26 05:54:51;;;;;;;25.12;13.95;;;;;;;4.70;77.10;101146.20;1714729;83;27458;-80
2021/10/26 05:57:18;;;;;;;21.33;12.75;;;;;;;4.72;77.18;101148.74;1659367;83;25914;-80
2021/10/26 05:59:45;;;;;;;23.57;13.58;;;;;;;4.74;77.25;101151.25;1669060;83;25879;-80
2021/10/26 06:02:12;;;;;;;27.35;14.15;;;;;;;4.76;77.28;101146.64;1696270;83;26537;-80
2021/10/26 06:04:40;;;;;;;22.67;13.50;;;;;;;4.78;77.31;101150.00;1688723;83;25835;-80
2021/10/26 06:07:07;;;;;;;30.25;15.80;;;;;;;4.81;77.39;101150.59;1689191;81;27378;-80
2021/10/26 06:09:35;;;;;;;42.98;25.05;;;;;;;4.85;77.47;101152.47;1704085;82;26380;-80
2021/10/26 06:12:04;;;;;;;73.83;46.02;;;;;;;4.85;77.50;101153.31;1705726;82;25882;-81
2021/10/26 06:14:32;;;;;;;54.10;32.83;;;;;;;4.87;77.58;101158.48;1723162;82;26293;-80
2021/10/26 06:17:02;;;;;;;41.40;24.67;;;;;;;4.88;77.60;101161.47;1703068;80;26384;-80
2021/10/26 06:19:31;;;;;;;50.23;28.23;;;;;;;4.91;77.64;101166.03;1701889;80;28213;-80
2021/10/26 06:22:00;;;;;;;41.30;23.60;;;;;;;4.96;77.66;101173.08;1718311;81;25761;-81
2021/10/26 06:24:27;;;;;;;30.65;15.58;;;;;;;4.99;77.65;101170.16;1743203;81;26469;-80
2021/10/26 06:26:54;;;;;;;25.05;15.55;;;;;;;5.01;77.70;101165.55;1684403;82;26971;-80
2021/10/26 06:29:22;;;;;;;23.75;14.90;;;;;;;5.04;77.75;101168.43;1679416;82;26604;-80
2021/10/26 06:32:08;;;;;;;24.50;14.38;;;;;;;5.07;77.79;101174.30;1715044;82;28259;-80
2021/10/26 06:34:36;;;;;;;24.10;13.20;;;;;;;5.10;77.88;101174.52;1752978;80;25828;-79
2021/10/26 06:37:03;;;;;;;21.70;14.10;;;;;;;5.12;77.94;101173.41;1716537;81;26237;-80
2021/10/26 06:39:31;;;;;;;21.42;13.35;;;;;;;5.16;77.97;101181.92;1723991;81;26470;-80
2021/10/26 06:41:59;;;;;;;29.35;14.70;;;;;;;5.20;78.04;101186.83;1725846;81;25422;-81
2021/10/26 06:44:44;;;;;;;23.22;13.98;;;;;;;5.24;78.07;101184.23;1742057;81;28237;-80
2021/10/26 06:47:30;;;;;;;23.57;13.10;;;;;;;5.29;78.12;101190.47;1703411;82;25891;-80
2021/10/26 06:50:16;;;;;;;24.52;13.72;;;;;;;5.33;78.19;101179.91;1697712;81;26145;-80
2021/10/26 06:52:48;;;;;;;25.15;13.98;;;;;;;5.39;78.29;101184.19;1690725;81;25920;-81
2021/10/26 06:55:34;;;;;;;27.82;14.53;;;;;;;5.44;78.31;101187.27;1722934;81;26406;-79
2021/10/26 06:58:20;;;;;;;26.82;13.95;;;;;;;5.49;78.29;101179.70;1720009;81;45523;-80
2021/10/26 07:01:08;;;;;;;23.45;13.00;;;;;;;5.56;78.27;101189.80;1698956;81;25871;-81
2021/10/26 07:03:56;;;;;;;24.47;14.18;;;;;;;5.60;78.30;101189.86;1745924;81;25498;-80
2021/10/26 07:06:36;;;;;;;24.07;14.87;;;;;;;5.65;78.37;101194.25;1694351;80;25878;-80
2021/10/26 07:09:11;;;;;;;23.75;13.38;;;;;;;5.71;78.53;101187.06;1727337;81;26567;-80
2021/10/26 07:11:40;;;;;;;27.67;15.98;;;;;;;5.75;78.53;101190.59;1694915;81;28362;-80
2021/10/26 07:14:09;;;;;;;25.12;13.32;;;;;;;5.79;78.39;101193.83;1700624;81;25789;-81
2021/10/26 07:16:36;;;;;;;26.35;15.03;;;;;;;5.85;78.53;101191.96;1749249;81;26009;-80
2021/10/26 07:19:04;;;;;;;27.80;15.98;;;;;;;5.91;78.53;101198.03;1719579;81;26382;-80
2021/10/26 07:21:32;;;;;;;24.18;14.03;;;;;;;5.95;78.56;101202.09;1691105;81;25894;-80
2021/10/26 07:24:18;;;;;;;26.15;14.38;;;;;;;5.98;78.50;101196.02;1707784;81;27470;-80
2021/10/26 07:27:00;;;;;;;23.25;13.50;;;;;;;6.04;78.28;101192.78;1750615;81;25840;-80
2021/10/26 07:29:27;;;;;;;21.57;14.18;;;;;;;6.08;78.32;101190.66;1705089;81;26278;-81
2021/10/26 07:31:56;;;;;;;22.70;14.45;;;;;;;6.14;78.31;101185.61;1706602;81;26446;-80
2021/10/26 07:34:23;;;;;;;22.75;13.75;;;;;;;6.20;78.32;101194.84;1706820;81;26248;-80
2021/10/26 07:36:52;;;;;;;21.20;13.22;;;;;;;6.26;78.40;101183.63;1680630;84;27462;-80
2021/10/26 07:39:32;;;;;;;22.10;13.43;;;;;;;6.32;78.36;101188.36;1723094;82;25822;-80
2021/10/26 07:41:49;;;;;;;21.30;13.35;;;;;;;6.39;78.30;101183.30;1681560;82;25973;-80
2021/10/26 07:44:34;;;;;;;23.92;14.47;;;;;;;6.46;78.24;101180.41;1712688;80;26357;-80
2021/10/26 07:47:06;;;;;;;25.05;15.05;;;;;;;6.54;78.25;101183.17;1714552;82;25470;-81
2021/10/26 07:49:34;;;;;;;23.75;13.08;;;;;;;6.60;78.20;101181.25;1701505;81;27360;-81
2021/10/26 07:52:04;;;;;;;26.87;16.20;;;;;;;6.67;78.08;101174.36;1694009;82;25951;-80
2021/10/26 07:54:32;;;;;;;20.72;12.73;;;;;;;6.72;78.06;101188.05;1713286;82;25868;-81
2021/10/26 07:57:00;;;;;;;25.40;13.65;;;;;;;6.78;77.68;101192.28;1736557;81;25894;-80
2021/10/26 07:59:28;;;;;;;24.05;14.33;;;;;;;6.82;77.72;101192.33;1716008;81;25789;-81
2021/10/26 08:01:56;;;;;;;22.10;13.80;;;;;;;6.87;77.73;101187.41;1708749;81;28271;-81
2021/10/26 08:04:46;;;;;;;23.20;14.35;;;;;;;6.93;77.08;101188.63;1722592;81;26364;-80
2021/10/26 08:07:17;;;;;;;28.02;14.98;;;;;;;6.97;77.23;101189.52;1711275;81;26468;-81
2021/10/26 08:09:49;;;;;;;24.95;13.38;;;;;;;7.03;77.22;101192.58;1684348;82;25867;-80
2021/10/26 08:12:17;;;;;;;25.85;13.53;;;;;;;7.09;77.34;101187.50;1709293;82;25463;-81
2021/10/26 08:14:45;;;;;;;24.80;14.80;;;;;;;7.14;77.06;101189.23;1707258;82;27424;-80
2021/10/26 08:17:13;;;;;;;25.37;15.05;;;;;;;7.18;77.10;101183.94;1748479;80;25909;-81
2021/10/26 08:19:46;;;;;;;26.07;15.35;;;;;;;7.22;77.12;101178.64;1708011;82;25804;-80
2021/10/26 08:22:17;;;;;;;24.60;14.35;;;;;;;7.27;76.95;101178.20;1663633;81;27491;-81
2021/10/26 08:24:51;;;;;;;23.20;13.20;;;;;;;7.30;76.87;101179.20;1701145;82;25840;-81
2021/10/26 08:27:19;;;;;;;24.77;14.47;;;;;;;7.33;76.78;101165.59;1698804;84;27447;-81
2021/10/26 08:32:43;;;;;;;22.85;13.85;;;;;;;7.40;76.84;101176.00;1657082;83;25830;-80
2021/10/26 08:37:58;;;;;;;23.77;13.80;;;;;;;7.44;76.74;101174.18;1731173;82;26208;-81
2021/10/26 08:40:28;;;;;;;22.30;14.15;;;;;;;7.48;76.81;101173.41;1732457;81;28328;-80
2021/10/26 08:43:03;;;;;;;22.48;14.68;;;;;;;7.51;76.70;101168.59;1708447;82;25871;-81
2021/10/26 08:45:28;;;;;;;21.33;13.72;;;;;;;7.53;76.82;101168.42;1683710;83;25949;-81
2021/10/26 08:47:56;;;;;;;22.42;13.98;;;;;;;7.56;76.74;101166.80;1749387;80;26528;-80
2021/10/26 08:50:30;;;;;;;24.98;14.85;;;;;;;7.60;76.89;101157.02;1704504;81;25924;-80
2021/10/26 08:52:56;;;;;;;20.77;13.10;;;;;;;7.63;77.02;101149.20;1708093;82;28644;-80
2021/10/26 08:55:26;;;;;;;25.62;15.08;;;;;;;7.69;77.09;101149.43;1699524;81;25860;-81
2021/10/26 08:57:56;;;;;;;22.60;13.73;;;;;;;7.73;77.22;101152.13;1660143;82;25889;-80
2021/10/26 09:00:28;;;;;;;21.37;12.78;;;;;;;7.78;77.16;101153.00;1734625;81;25865;-82
2021/10/26 09:02:56;;;;;;;21.65;12.88;;;;;;;7.83;77.23;101160.53;1731441;81;25761;-81
2021/10/26 09:05:26;;;;;;;22.48;14.75;;;;;;;7.87;77.21;101164.04;1731448;81;27513;-81
2021/10/26 09:08:05;;;;;;;22.25;13.43;;;;;;;7.92;77.35;101161.75;1661466;81;26726;-81
2021/10/26 09:10:35;;;;;;;26.25;14.65;;;;;;;7.99;77.21;101171.30;1751725;81;25331;-81
2021/10/26 09:16:40;;;;;;;23.60;15.00;;;;;;;8.11;77.36;101176.22;1719660;82;26053;-80
2021/10/26 09:19:26;;;;;;;26.27;14.35;;;;;;;8.17;77.22;101167.59;1685002;81;27363;-81
2021/10/26 09:21:59;;;;;;;22.87;14.80;;;;;;;8.24;77.43;101172.64;1748426;81;25558;-80
2021/10/26 09:24:27;;;;;;;23.65;14.38;;;;;;;8.30;77.27;101182.72;1704300;82;26626;-81
2021/10/26 09:27:00;;;;;;;25.82;14.10;;;;;;;8.36;77.13;101181.27;1686895;83;25828;-80
2021/10/26 09:29:41;;;;;;;20.43;13.72;;;;;;;8.45;77.20;101188.30;1715404;82;26063;-81
2021/10/26 09:32:17;;;;;;;23.25;15.32;;;;;;;8.59;77.05;101188.22;1749143;81;27625;-81
2021/10/26 09:34:52;;;;;;;28.95;15.80;;;;;;;8.70;77.05;101189.27;1748048;81;25912;-80
2021/10/26 09:37:20;;;;;;;25.85;14.30;;;;;;;8.80;76.72;101190.81;1720727;81;25807;-81
2021/10/26 09:39:56;;;;;;;20.77;14.38;;;;;;;8.90;76.03;101190.67;1720997;81;26528;-82
2021/10/26 09:42:44;;;;;;;23.80;16.05;;;;;;;8.96;76.47;101182.84;1743320;81;26585;-80
2021/10/26 09:45:16;;;;;;;21.30;14.45;;;;;;;9.04;75.61;101178.05;1739774;81;28265;-81
2021/10/26 09:47:43;;;;;;;22.60;14.50;;;;;;;9.10;75.99;101174.72;1704640;81;26197;-80
2021/10/26 09:50:13;;;;;;;26.87;14.58;;;;;;;9.16;75.52;101175.39;1702877;81;25846;-80
2021/10/26 09:52:44;;;;;;;25.30;14.65;;;;;;;9.20;75.25;101171.39;1740925;81;25848;-80
2021/10/26 09:55:21;;;;;;;28.02;16.37;;;;;;;9.26;75.70;101170.73;1724723;81;25749;-81
2021/10/26 09:58:01;;;;;;;23.25;15.38;;;;;;;9.30;75.39;101170.23;1753377;80;27470;-81
2021/10/26 10:00:39;;;;;;;19.87;13.05;;;;;;;9.36;75.50;101176.78;1669813;81;25807;-81
2021/10/26 10:03:11;;;;;;;22.95;14.80;;;;;;;9.38;75.11;101166.76;1744894;81;25778;-81
2021/10/26 10:05:54;;;;;;;21.95;14.53;;;;;;;9.40;75.15;101160.74;1719674;82;25816;-80
2021/10/26 10:08:34;;;;;;;21.62;14.55;;;;;;;9.43;74.91;101155.57;1704891;81;26117;-81
2021/10/26 10:11:17;;;;;;;27.17;15.00;;;;;;;9.44;74.89;101153.22;1701331;81;28859;-81
2021/10/26 10:13:47;;;;;;;21.97;13.95;;;;;;;9.44;74.71;101155.40;1722143;81;26568;-81
2021/10/26 10:16:17;;;;;;;21.65;14.60;;;;;;;9.44;74.76;101158.56;1750029;81;25830;-81
2021/10/26 10:18:48;;;;;;;23.47;14.05;;;;;;;9.43;74.44;101160.39;1704085;81;25861;-80
2021/10/26 10:21:18;;;;;;;19.95;13.22;;;;;;;9.45;74.56;101144.20;1642984;83;25917;-80
2021/10/26 10:23:50;;;;;;;22.10;14.63;;;;;;;9.45;74.47;101151.73;1731422;81;27695;-81
2021/10/26 10:26:28;;;;;;;23.95;13.90;;;;;;;9.47;74.60;101152.41;1756631;81;26011;-84
2021/10/26 10:28:59;;;;;;;21.75;14.15;;;;;;;9.51;74.70;101156.41;1699022;83;25310;-81
2021/10/26 10:31:27;;;;;;;21.77;14.78;;;;;;;9.55;74.91;101149.72;1703743;81;25878;-81
2021/10/26 10:33:56;;;;;;;25.55;15.63;;;;;;;9.63;74.92;101150.21;1738571;81;25774;-81
2021/10/26 10:36:23;;;;;;;28.07;14.85;;;;;;;9.70;75.05;101149.89;1748532;81;28355;-80
2021/10/26 10:38:53;;;;;;;26.57;15.53;;;;;;;9.79;75.21;101139.52;1706515;81;25862;-80
2021/10/26 10:41:37;;;;;;;22.60;14.95;;;;;;;9.90;74.96;101137.84;1707294;81;25798;-81
2021/10/26 10:44:23;;;;;;;21.30;14.43;;;;;;;10.01;74.85;101135.63;1748523;81;25955;-81
2021/10/26 10:46:56;;;;;;;25.75;15.83;;;;;;;10.13;74.98;101137.99;1747470;81;25845;-80
2021/10/26 10:49:39;;;;;;;22.62;14.28;;;;;;;10.21;74.61;101125.92;1706300;81;27684;-81
2021/10/26 10:52:15;;;;;;;26.62;15.40;;;;;;;10.30;74.68;101116.37;1717658;81;26607;-81
2021/10/26 10:57:34;;;;;;;23.90;14.05;;;;;;;10.40;74.11;101116.99;1726366;82;25805;-81
2021/10/26 11:00:28;;;;;;;24.32;14.35;;;;;;;10.47;73.82;101117.98;1729559;81;25862;-81
2021/10/26 11:02:57;;;;;;;20.68;13.65;;;;;;;10.56;73.50;101116.11;1729650;81;28376;-81
2021/10/26 11:05:36;;;;;;;24.25;14.65;;;;;;;10.66;73.38;101112.70;1756915;81;25882;-82
2021/10/26 11:08:14;;;;;;;20.05;13.65;;;;;;;10.73;73.00;101107.80;1702294;82;25877;-81
2021/10/26 11:10:56;;;;;;;19.95;13.05;;;;;;;10.80;72.23;101105.25;1670763;81;25820;-80
2021/10/26 11:13:29;;;;;;;21.95;13.60;;;;;;;10.85;71.98;101105.56;1696118;81;25907;-81
2021/10/26 11:16:03;;;;;;;25.55;14.68;;;;;;;10.90;72.23;101088.96;1732461;82;27547;-81
2021/10/26 11:18:39;;;;;;;27.22;14.03;;;;;;;10.95;71.95;101093.30;1726117;82;25894;-80
2021/10/26 11:21:25;;;;;;;24.35;14.18;;;;;;;10.99;72.05;101084.70;1691161;81;25843;-81
2021/10/26 11:24:04;;;;;;;21.00;13.13;;;;;;;11.06;72.08;101088.34;1719553;81;26493;-81
2021/10/26 11:26:36;;;;;;;23.90;14.10;;;;;;;11.13;72.13;101083.95;1743603;81;26553;-81
2021/10/26 11:29:08;;;;;;;23.75;13.43;;;;;;;11.19;71.39;101079.20;1753885;80;27420;-82
2021/10/26 11:31:51;;;;;;;23.73;14.13;;;;;;;11.24;71.42;101083.53;1702642;81;26195;-81
2021/10/26 11:34:28;;;;;;;20.15;13.18;;;;;;;11.27;71.17;101087.71;1701300;81;25963;-81
2021/10/26 11:37:06;;;;;;;17.48;12.37;;;;;;;11.28;71.23;101094.23;1714191;81;26228;-81
2021/10/26 11:39:38;;;;;;;22.17;14.05;;;;;;;11.30;71.24;101090.02;1748984;81;26681;-81
2021/10/26 11:42:16;;;;;;;21.87;13.20;;;;;;;11.29;71.13;101082.47;1728458;81;28116;-81
2021/10/26 11:44:44;;;;;;;17.23;12.60;;;;;;;11.30;70.86;101072.09;1697888;81;25839;-80